< < Back
Terminal Aerodrome Forecast


Current Version              Previous Versions:   1  2  3  4  5  6  7  8  9  

Terminal Aerodrome Forecast

697
FTUS42 KTAE 222000 AAA
TAFDHN
TAF AMD
KDHN 222029Z 2220/2318 36011KT P6SM SCT040 BKN100
     FM230100 35005KT P6SM SCT200
     FM231400 05007KT P6SM SKC=

Latest METAR

213
SAUS70 KWBC 230600 RRD
MTRDHN
METAR KDHN 230553Z AUTO 02004KT 6SM BR CLR 17/16 A3008 RMK AO2 SLP182
T01670161 10200 20167 403110167 55001


USA.gov is the U.S. government's official web portal to all federal, state and local government web resources and services.